首页
METAR-TAF:

METAR-TAF

机场 :

Wheeler, 夏威夷州, 美国

纬度: 21-29N, 经度: 158-02W, 海拔: 255米

当前天气观测

该预报发布于21分钟前的15:05 UTC
风速3节,风向东转东北
温度 22°C
湿度 83%
气压 1018 hPa
能見度: 16.1公里
少量云层高于700英尺
散云层高于2200英尺
散云层高于2600英尺
阴天层高于3300英尺

METAR: PHHI 181505Z AUTO 06003KT 10SM FEW007 SCT022 SCT026 OVC033 22/19 A3006 RMK AO2 SLP169 $

时间: 05:26 (15:26 UTC)

预报

该预报发布于26分钟前的15:00 UTC
预报有效从18日的 15点(UTC)到 19日的 21点(UTC)
风速9节,风向东转东北
能见度10公里或以上
散云层高于2500英尺
多云层高于3500英尺
短暂存在
从 18日的 15点(UTC)到 18日的 19点(UTC)
能見度: 9000
少量云层高于600英尺
散云层高于1200英尺
多云层高于2000英尺
小毛毛雨
短暂存在
从 18日的 23点(UTC)到 19日的 03点(UTC)
风速12节,风向东转东北,有时为18节阵风
成为
从 19日的 03点(UTC)到 19日的 04点(UTC)
风速6节,风向多变
能见度10公里或以上
散云层高于2000英尺
多云层高于3000英尺
成为
从 19日的 17点(UTC)到 19日的 18点(UTC)
风速9节,风向
能见度10公里或以上
散云层高于2500英尺
多云层高于3500英尺

TAF: PHHI 181500Z 1815/1921 06009KT 9999 SCT025 BKN035 QNH3006INS TEMPO 1815/1819 9000 -DZ FEW006 SCT012 BKN020 TEMPO 1823/1903 07012G18KT BECMG 1903/1904 VRB06KT 9999 SCT020 BKN030 QNH3005INS BECMG 1917/1918 08009KT 9999 SCT025 BKN035 QNH3009INS TX28/1823Z TN21/1915Z

超过4000个机场的气象观测和天气预报(METAR&TAF报告)。

可查询的气象台以黄色和红色小点在地图上表示。

将鼠标移到小点上方,可查看气象台名称。

然后点击查看天气观测和预报。

如需切换地图:点击带黑十字的绿色按钮放大地图;点击带横线的绿色按钮缩小地图;或者点击绿色箭头查看邻近地区的地图。


METAR-TAF: